Time;durP1;ratioP1;P1;durP2;ratioP2;P2;SDS_P1;SDS_P2;PMS_P1;PMS_P2;Temp;Humidity;BMP_temperature;BMP_pressure;BME280_temperature;BME280_humidity;BME280_pressure;Samples;Min_cycle;Max_cycle;Signal;HPM_P1;HPM_P2
2022/10/23 00:01:35;;;;;;;2.17;1.30;;;;;;;12.88;68.93;99329.47;5069706;28;20218;-58
2022/10/23 00:04:04;;;;;;;1.50;0.93;;;;;;;12.89;68.93;99326.00;5069700;28;20196;-64
2022/10/23 00:06:33;;;;;;;2.07;1.10;;;;;;;12.90;68.72;99316.53;5069318;28;20219;-63
2022/10/23 00:09:01;;;;;;;7.50;1.80;;;;;;;12.84;68.78;99307.56;5069562;28;20583;-58
2022/10/23 00:11:29;;;;;;;1.40;1.17;;;;;;;12.72;69.76;99318.78;5069404;28;20223;-59
2022/10/23 00:13:58;;;;;;;1.67;1.20;;;;;;;12.64;69.61;99311.69;5069371;28;20640;-63
2022/10/23 00:16:25;;;;;;;1.87;1.07;;;;;;;12.65;69.58;99318.47;5069470;28;20210;-60
2022/10/23 00:18:52;;;;;;;2.33;1.70;;;;;;;12.68;69.67;99322.50;5069387;28;20238;-59
2022/10/23 00:21:19;;;;;;;0.83;0.83;;;;;;;12.65;69.84;99318.47;5069377;28;20622;-58
2022/10/23 00:23:47;;;;;;;1.50;1.13;;;;;;;12.67;69.71;99326.03;5069456;28;20203;-58
2022/10/23 00:26:15;;;;;;;1.33;1.23;;;;;;;12.66;69.95;99314.13;5069260;28;20497;-63
2022/10/23 00:28:43;;;;;;;1.23;1.10;;;;;;;12.62;70.27;99325.56;5069066;28;20740;-64
2022/10/23 00:31:11;;;;;;;1.20;1.13;;;;;;;12.46;71.77;99321.59;5069120;28;20234;-58
2022/10/23 00:33:38;;;;;;;0.63;0.63;;;;;;;12.46;72.29;99329.31;5069591;28;20620;-63
2022/10/23 00:36:06;;;;;;;1.97;1.40;;;;;;;12.50;72.20;99335.00;5069468;28;20226;-58
2022/10/23 00:38:33;;;;;;;1.70;1.03;;;;;;;12.56;72.04;99329.41;5069514;28;20203;-57
2022/10/23 00:41:02;;;;;;;1.63;1.23;;;;;;;12.61;72.52;99334.19;5069144;28;20746;-63
2022/10/23 00:43:31;;;;;;;0.70;0.70;;;;;;;12.63;72.39;99330.59;5069082;28;20624;-63
2022/10/23 00:45:58;;;;;;;1.47;1.20;;;;;;;12.62;72.38;99323.00;5071371;28;20623;-63
2022/10/23 00:48:27;;;;;;;1.13;1.03;;;;;;;12.72;71.90;99323.94;5072833;28;20211;-58
2022/10/23 00:50:54;;;;;;;1.33;1.07;;;;;;;12.77;71.66;99326.13;5073149;28;20222;-58
2022/10/23 00:53:22;;;;;;;1.17;0.77;;;;;;;12.77;71.45;99329.53;5072824;28;20202;-57
2022/10/23 00:55:53;;;;;;;3.00;1.63;;;;;;;12.78;71.27;99323.44;5072869;28;20225;-58
2022/10/23 00:58:22;;;;;;;0.43;0.43;;;;;;;12.65;72.17;99327.88;5072735;28;20203;-63
2022/10/23 01:00:53;;;;;;;1.83;0.83;;;;;;;12.61;72.61;99327.31;5072479;28;20219;-63
2022/10/23 01:03:23;;;;;;;1.80;1.10;;;;;;;12.60;72.89;99332.56;5072661;28;20640;-58
2022/10/23 01:05:54;;;;;;;0.90;0.90;;;;;;;12.51;73.05;99338.38;5072400;28;20241;-63
2022/10/23 01:08:28;;;;;;;2.10;1.90;;;;;;;12.51;72.53;99341.78;5072483;28;20218;-59
2022/10/23 01:11:03;;;;;;;1.90;1.20;;;;;;;12.54;72.43;99353.56;5072434;28;20276;-64
2022/10/23 01:13:39;;;;;;;0.97;0.70;;;;;;;12.51;72.72;99371.72;5072341;28;20194;-59
2022/10/23 01:16:11;;;;;;;1.17;0.93;;;;;;;12.50;73.12;99364.97;5072661;28;20226;-58
2022/10/23 01:18:44;;;;;;;2.33;1.60;;;;;;;12.47;72.92;99366.00;5072699;28;20225;-58
2022/10/23 01:21:17;;;;;;;1.60;1.03;;;;;;;12.48;72.79;99356.56;5071966;28;20225;-63
2022/10/23 01:24:07;;;;;;;1.90;1.13;;;;;;;12.44;72.80;99367.06;5072220;28;20207;-58
2022/10/23 01:26:50;;;;;;;1.10;0.93;;;;;;;12.50;72.40;99375.22;5072013;28;20218;-58
2022/10/23 01:29:25;;;;;;;2.03;1.40;;;;;;;12.45;72.78;99373.03;5071928;28;20203;-64
2022/10/23 01:31:58;;;;;;;2.47;1.00;;;;;;;12.40;73.03;99375.13;5072278;28;20201;-64
2022/10/23 01:34:31;;;;;;;1.40;1.30;;;;;;;12.38;73.19;99380.34;5072009;28;20734;-64
2022/10/23 01:37:02;;;;;;;2.83;1.60;;;;;;;12.41;72.99;99382.69;5071799;28;20206;-58
2022/10/23 01:39:35;;;;;;;1.73;1.37;;;;;;;12.48;72.57;99384.78;5071810;28;20279;-58
2022/10/23 01:42:08;;;;;;;2.33;1.73;;;;;;;12.51;72.68;99398.22;5071794;28;20194;-64
2022/10/23 01:44:41;;;;;;;1.37;1.23;;;;;;;12.54;72.44;99392.03;5071830;28;20219;-58
2022/10/23 01:47:11;;;;;;;1.70;1.57;;;;;;;12.57;72.52;99399.50;5071930;28;20623;-58
2022/10/23 01:49:40;;;;;;;1.43;1.33;;;;;;;12.57;72.41;99399.50;5071975;28;20223;-63
2022/10/23 01:52:11;;;;;;;1.37;1.27;;;;;;;12.61;72.30;99411.16;5071719;28;20203;-58
2022/10/23 01:54:40;;;;;;;3.33;1.37;;;;;;;12.69;72.05;99406.25;5071597;28;20237;-58
2022/10/23 01:57:09;;;;;;;5.13;1.40;;;;;;;12.80;72.04;99407.97;5070537;28;20202;-63
2022/10/23 01:59:42;;;;;;;0.97;0.93;;;;;;;12.83;71.69;99410.34;5071534;28;20215;-58
2022/10/23 02:02:11;;;;;;;2.13;1.43;;;;;;;12.83;71.94;99407.78;5071577;28;20213;-58
2022/10/23 02:04:41;;;;;;;1.17;1.00;;;;;;;12.91;71.85;99411.38;5071303;28;20214;-62
2022/10/23 02:07:08;;;;;;;0.70;0.67;;;;;;;12.97;71.89;99416.97;5071375;28;20195;-59
2022/10/23 02:09:35;;;;;;;0.63;0.60;;;;;;;13.07;71.50;99420.47;5071256;28;20226;-58
2022/10/23 02:12:07;;;;;;;1.30;1.20;;;;;;;13.17;71.26;99416.25;5071177;28;20569;-64
2022/10/23 02:14:45;;;;;;;1.53;1.27;;;;;;;13.18;71.28;99417.91;5071112;28;20641;-64
2022/10/23 02:17:20;;;;;;;1.30;0.97;;;;;;;13.22;71.24;99423.59;5071321;28;20194;-64
2022/10/23 02:19:56;;;;;;;1.23;1.13;;;;;;;13.29;70.51;99419.63;5071351;28;20222;-58
2022/10/23 02:22:29;;;;;;;0.70;0.70;;;;;;;13.45;69.30;99424.41;5070858;28;20190;-58
2022/10/23 02:24:59;;;;;;;0.60;0.60;;;;;;;13.53;69.57;99433.13;5070949;28;20214;-58
2022/10/23 02:27:31;;;;;;;1.20;1.10;;;;;;;13.62;69.14;99426.44;5070878;28;20214;-61
2022/10/23 02:30:05;;;;;;;1.27;1.17;;;;;;;13.66;68.75;99427.81;5070613;28;20636;-64
2022/10/23 02:32:33;;;;;;;2.93;1.33;;;;;;;13.68;68.82;99425.97;5071008;28;20622;-64
2022/10/23 02:35:00;;;;;;;1.93;1.20;;;;;;;13.78;68.64;99431.19;5070767;28;20250;-64
2022/10/23 02:37:27;;;;;;;0.83;0.83;;;;;;;13.78;68.95;99426.84;5070597;28;20200;-63
2022/10/23 02:39:54;;;;;;;1.83;1.20;;;;;;;13.85;68.18;99427.19;5070452;28;20228;-64
2022/10/23 02:42:26;;;;;;;1.27;0.87;;;;;;;13.87;68.03;99432.19;5070581;28;20196;-64
2022/10/23 02:45:04;;;;;;;1.47;1.30;;;;;;;13.91;67.98;99447.25;5070332;28;20224;-57
2022/10/23 02:47:46;;;;;;;2.00;1.30;;;;;;;13.90;68.91;99449.94;5070441;28;20243;-64
2022/10/23 02:50:21;;;;;;;1.50;1.23;;;;;;;13.85;69.00;99454.66;5070347;28;20232;-58
2022/10/23 02:52:58;;;;;;;1.97;1.50;;;;;;;13.87;69.64;99460.47;5070770;28;20202;-58
2022/10/23 02:55:34;;;;;;;1.97;1.00;;;;;;;13.86;69.37;99458.84;5070487;28;20653;-59
2022/10/23 02:58:11;;;;;;;0.80;0.80;;;;;;;13.92;69.69;99460.91;5070420;28;20443;-64
2022/10/23 03:00:45;;;;;;;2.93;1.13;;;;;;;13.95;69.61;99468.38;5070471;28;20215;-64
2022/10/23 03:03:17;;;;;;;1.63;1.53;;;;;;;13.95;69.92;99470.94;5070193;28;20195;-64
2022/10/23 03:05:44;;;;;;;1.60;1.10;;;;;;;13.91;70.44;99478.09;5070465;28;20220;-63
2022/10/23 03:08:13;;;;;;;0.73;0.73;;;;;;;13.97;70.60;99476.81;5070038;28;20259;-59
2022/10/23 03:10:41;;;;;;;1.30;1.20;;;;;;;13.95;71.11;99474.34;5069846;28;20223;-58
2022/10/23 03:13:09;;;;;;;0.67;0.67;;;;;;;13.86;71.47;99469.13;5070106;28;20699;-58
2022/10/23 03:15:36;;;;;;;1.27;1.00;;;;;;;13.76;71.71;99469.84;5070231;28;20231;-64
2022/10/23 03:18:04;;;;;;;1.90;1.17;;;;;;;13.73;72.14;99470.09;5070158;28;20611;-63
2022/10/23 03:20:31;;;;;;;1.63;1.17;;;;;;;13.62;72.47;99467.56;5069895;28;20221;-63
2022/10/23 03:22:58;;;;;;;1.00;1.00;;;;;;;13.59;72.57;99480.66;5069877;28;20196;-63
2022/10/23 03:25:24;;;;;;;3.43;1.70;;;;;;;13.54;72.88;99485.31;5069815;28;20607;-58
2022/10/23 03:27:51;;;;;;;0.87;0.80;;;;;;;13.37;73.97;99473.78;5069881;28;20200;-59
2022/10/23 03:30:18;;;;;;;1.67;1.17;;;;;;;13.33;74.53;99475.78;5069883;28;20239;-58
2022/10/23 03:32:45;;;;;;;2.37;1.50;;;;;;;13.33;74.63;99472.41;5069919;28;20586;-63
2022/10/23 03:35:13;;;;;;;0.97;0.80;;;;;;;13.32;75.28;99469.03;5069582;28;20250;-58
2022/10/23 03:37:40;;;;;;;0.67;0.60;;;;;;;13.25;75.61;99472.16;5069776;28;20204;-58
2022/10/23 03:40:08;;;;;;;0.70;0.70;;;;;;;13.20;76.00;99472.47;5069807;28;20220;-62
2022/10/23 03:42:35;;;;;;;1.60;1.37;;;;;;;13.16;76.45;99478.81;5070002;28;20203;-58
2022/10/23 03:45:02;;;;;;;0.80;0.80;;;;;;;13.10;77.04;99482.66;5069590;28;20602;-63
2022/10/23 03:47:29;;;;;;;1.27;1.00;;;;;;;13.18;76.76;99487.22;5069704;28;20210;-58
2022/10/23 03:49:56;;;;;;;1.57;0.83;;;;;;;13.09;77.84;99488.72;5069400;28;20299;-58
2022/10/23 03:52:24;;;;;;;3.37;1.57;;;;;;;13.07;77.76;99497.47;5069812;28;20191;-58
2022/10/23 03:54:51;;;;;;;1.00;0.90;;;;;;;13.00;78.32;99494.56;5069695;28;20228;-63
2022/10/23 03:57:18;;;;;;;1.77;1.30;;;;;;;12.99;79.20;99500.63;5069548;28;20700;-63
2022/10/23 03:59:44;;;;;;;2.03;1.77;;;;;;;12.99;79.44;99500.63;5069767;28;20223;-63
2022/10/23 04:02:11;;;;;;;0.93;0.73;;;;;;;13.08;79.77;99509.38;5069648;28;20581;-64
2022/10/23 04:04:38;;;;;;;0.93;0.83;;;;;;;13.00;80.87;99504.00;5069818;28;20214;-58
2022/10/23 04:07:05;;;;;;;0.83;0.80;;;;;;;12.96;81.77;99505.16;5069983;28;20191;-64
2022/10/23 04:09:33;;;;;;;1.40;0.80;;;;;;;12.91;81.39;99516.63;5069347;28;20744;-64
2022/10/23 04:12:00;;;;;;;2.20;1.27;;;;;;;12.91;82.12;99524.31;5069852;28;20582;-63
2022/10/23 04:14:27;;;;;;;0.83;0.80;;;;;;;12.94;82.75;99522.44;5069229;28;20206;-64
2022/10/23 04:16:54;;;;;;;0.67;0.67;;;;;;;13.09;85.67;99531.56;5069373;28;20195;-64
2022/10/23 04:19:21;;;;;;;1.40;1.00;;;;;;;13.25;86.09;99544.88;5069479;28;20199;-63
2022/10/23 04:21:48;;;;;;;2.40;0.97;;;;;;;13.56;86.46;99539.97;5073080;28;20221;-61
2022/10/23 04:24:14;;;;;;;0.80;0.80;;;;;;;13.73;86.52;99536.91;5072826;28;20211;-58
2022/10/23 04:26:43;;;;;;;2.00;1.17;;;;;;;13.85;86.42;99539.47;5073444;28;20204;-63
2022/10/23 04:29:09;;;;;;;0.80;0.80;;;;;;;13.98;86.24;99545.25;5073448;28;20573;-64
2022/10/23 04:31:36;;;;;;;0.90;0.70;;;;;;;14.03;85.70;99554.25;5073080;28;20225;-63
2022/10/23 04:34:03;;;;;;;1.63;0.77;;;;;;;14.09;85.96;99547.81;5073136;28;20614;-58
2022/10/23 04:36:30;;;;;;;1.07;0.80;;;;;;;14.14;86.26;99550.84;5072785;28;20243;-63
2022/10/23 04:38:57;;;;;;;0.50;0.50;;;;;;;14.08;86.67;99555.63;5072919;28;20202;-58
2022/10/23 04:41:24;;;;;;;0.80;0.80;;;;;;;14.13;86.38;99558.66;5072602;28;20214;-64
2022/10/23 04:43:52;;;;;;;0.50;0.47;;;;;;;14.09;87.13;99560.66;5073129;28;20582;-58
2022/10/23 04:46:19;;;;;;;1.00;0.90;;;;;;;14.08;87.42;99558.19;5072850;28;20308;-58
2022/10/23 04:48:45;;;;;;;0.53;0.50;;;;;;;14.02;88.24;99568.03;5072639;28;20203;-58
2022/10/23 04:51:12;;;;;;;0.77;0.73;;;;;;;14.05;88.71;99567.00;5072836;28;20608;-59
2022/10/23 04:53:39;;;;;;;1.10;1.00;;;;;;;14.05;88.83;99567.00;5073230;28;20592;-59
2022/10/23 04:56:06;;;;;;;1.27;0.77;;;;;;;14.10;88.77;99570.00;5072288;28;20233;-58
2022/10/23 04:58:34;;;;;;;1.33;0.97;;;;;;;14.07;89.09;99572.00;5072737;28;20202;-58
2022/10/23 05:01:02;;;;;;;0.67;0.63;;;;;;;14.08;89.74;99568.47;5072502;28;20602;-58
2022/10/23 05:03:29;;;;;;;1.87;1.10;;;;;;;14.08;89.73;99582.19;5072636;28;20205;-59
2022/10/23 05:05:56;;;;;;;1.27;1.17;;;;;;;14.04;89.73;99581.56;5072553;28;20242;-63
2022/10/23 05:08:23;;;;;;;1.00;1.00;;;;;;;14.03;90.18;99574.00;5072425;28;20223;-63
2022/10/23 05:10:51;;;;;;;0.93;0.57;;;;;;;14.09;89.90;99583.78;5072362;28;20232;-58
2022/10/23 05:13:18;;;;;;;0.63;0.63;;;;;;;14.03;90.31;99594.56;5072477;28;20699;-58
2022/10/23 05:15:47;;;;;;;0.50;0.50;;;;;;;14.00;90.23;99594.81;5072153;28;20230;-58
2022/10/23 05:18:20;;;;;;;0.70;0.70;;;;;;;14.00;90.58;99599.94;5072555;28;20203;-59
2022/10/23 05:20:51;;;;;;;1.23;0.90;;;;;;;13.97;90.58;99602.75;5072390;28;20223;-63
2022/10/23 05:23:22;;;;;;;1.03;0.93;;;;;;;14.00;90.52;99599.94;5072155;28;20198;-58
2022/10/23 05:25:49;;;;;;;0.73;0.63;;;;;;;14.00;90.77;99605.09;5072547;28;20587;-58
2022/10/23 05:28:16;;;;;;;1.10;1.00;;;;;;;14.00;90.46;99599.94;5071960;28;20198;-58
2022/10/23 05:30:43;;;;;;;1.57;0.70;;;;;;;13.97;90.14;99595.88;5072262;28;20213;-64
2022/10/23 05:33:11;;;;;;;0.60;0.60;;;;;;;14.02;89.87;99605.78;5071933;28;20204;-58
2022/10/23 05:35:40;;;;;;;0.67;0.53;;;;;;;13.99;90.00;99603.44;5072174;28;20617;-58
2022/10/23 05:38:09;;;;;;;1.37;0.67;;;;;;;13.96;89.30;99606.25;5072140;28;20201;-63
2022/10/23 05:40:35;;;;;;;1.07;0.87;;;;;;;14.03;89.13;99612.56;5071604;28;20217;-58
2022/10/23 05:43:02;;;;;;;1.03;0.90;;;;;;;14.14;88.91;99617.69;5071843;28;20215;-64
2022/10/23 05:45:29;;;;;;;1.20;0.50;;;;;;;14.10;88.51;99611.13;5071749;28;20225;-58
2022/10/23 05:47:56;;;;;;;0.87;0.60;;;;;;;14.21;88.41;99618.81;5071567;28;20591;-58
2022/10/23 05:50:23;;;;;;;0.80;0.80;;;;;;;14.30;88.04;99606.19;5071591;28;20220;-62
2022/10/23 05:52:51;;;;;;;0.67;0.67;;;;;;;14.42;87.72;99625.78;5071949;28;20545;-64
2022/10/23 05:55:18;;;;;;;0.80;0.80;;;;;;;14.64;86.99;99636.03;5071477;28;20241;-58
2022/10/23 05:57:45;;;;;;;0.87;0.83;;;;;;;14.86;86.39;99639.44;5071617;28;20213;-58
2022/10/23 06:00:13;;;;;;;1.00;0.90;;;;;;;15.08;85.58;99633.38;5071549;28;20245;-58
2022/10/23 06:02:40;;;;;;;0.87;0.87;;;;;;;15.27;84.38;99630.06;5071518;28;20198;-58
2022/10/23 06:05:07;;;;;;;0.53;0.50;;;;;;;15.44;84.29;99639.78;5071553;28;20230;-63
2022/10/23 06:07:34;;;;;;;1.27;0.93;;;;;;;15.65;83.86;99644.06;5071405;28;20214;-64
2022/10/23 06:10:02;;;;;;;1.20;0.77;;;;;;;15.92;82.83;99639.19;5071235;28;20326;-58
2022/10/23 06:12:29;;;;;;;0.80;0.80;;;;;;;16.12;81.76;99644.41;5071166;28;20199;-59
2022/10/23 06:14:56;;;;;;;1.03;0.77;;;;;;;16.27;80.90;99648.25;5071057;28;20444;-64
2022/10/23 06:17:23;;;;;;;1.27;0.90;;;;;;;16.27;80.69;99643.06;5071159;28;20216;-58
2022/10/23 06:19:49;;;;;;;1.40;1.10;;;;;;;16.36;80.65;99652.59;5070919;28;20610;-62
2022/10/23 06:22:16;;;;;;;1.47;1.00;;;;;;;16.59;79.51;99657.50;5071052;28;20277;-58
2022/10/23 06:24:43;;;;;;;1.00;0.90;;;;;;;16.88;79.04;99655.75;5070689;28;20226;-58
2022/10/23 06:27:11;;;;;;;1.03;0.90;;;;;;;17.00;78.09;99653.03;5071069;28;20195;-63
2022/10/23 06:29:40;;;;;;;1.37;0.60;;;;;;;17.06;77.99;99660.22;5071138;28;20250;-64
2022/10/23 06:32:07;;;;;;;0.43;0.43;;;;;;;17.36;77.06;99652.25;5070855;28;20218;-63
2022/10/23 06:34:34;;;;;;;0.57;0.57;;;;;;;17.57;75.62;99656.41;5070708;28;20222;-58
2022/10/23 06:37:01;;;;;;;0.77;0.77;;;;;;;17.59;75.61;99651.94;5070987;28;20617;-63
2022/10/23 06:39:27;;;;;;;0.50;0.50;;;;;;;17.57;74.82;99653.81;5070704;28;20200;-58
2022/10/23 06:41:54;;;;;;;1.10;1.00;;;;;;;17.68;74.93;99669.16;5070615;28;20196;-58
2022/10/23 06:44:23;;;;;;;0.50;0.50;;;;;;;17.84;74.31;99677.19;5070213;28;20208;-64
2022/10/23 06:46:50;;;;;;;0.47;0.47;;;;;;;17.98;74.02;99667.31;5070519;28;20210;-62
2022/10/23 06:49:17;;;;;;;0.83;0.73;;;;;;;18.19;72.35;99675.63;5070660;28;20222;-64
2022/10/23 06:51:44;;;;;;;0.57;0.57;;;;;;;18.33;71.56;99677.75;5070459;28;20204;-58
2022/10/23 06:54:11;;;;;;;0.73;0.73;;;;;;;18.44;70.50;99679.31;5070555;28;20229;-64
2022/10/23 06:56:38;;;;;;;0.90;0.73;;;;;;;18.30;70.98;99678.03;5070484;28;20239;-58
2022/10/23 06:59:07;;;;;;;0.93;0.80;;;;;;;18.65;69.79;99676.44;5070486;28;20221;-63
2022/10/23 07:01:35;;;;;;;0.33;0.33;;;;;;;19.01;69.16;99684.19;5070266;28;20275;-63
2022/10/23 07:04:02;;;;;;;0.60;0.60;;;;;;;19.19;68.01;99684.97;5070406;28;20206;-58
2022/10/23 07:06:29;;;;;;;0.50;0.50;;;;;;;19.19;66.38;99690.16;5069941;28;20327;-58
2022/10/23 07:08:56;;;;;;;0.57;0.57;;;;;;;19.17;65.91;99694.69;5070326;28;20588;-58
2022/10/23 07:11:23;;;;;;;1.83;0.50;;;;;;;18.90;67.20;99694.78;5070068;28;20229;-64
2022/10/23 07:13:50;;;;;;;0.47;0.47;;;;;;;19.10;66.62;99698.03;5070142;28;20203;-64
2022/10/23 07:16:19;;;;;;;0.80;0.43;;;;;;;19.29;66.44;99712.59;5069869;28;20240;-59
2022/10/23 07:18:48;;;;;;;0.50;0.43;;;;;;;19.34;65.42;99712.94;5070013;28;20279;-64
2022/10/23 07:21:16;;;;;;;1.33;0.83;;;;;;;19.30;65.57;99716.81;5069656;28;20299;-65
2022/10/23 07:23:42;;;;;;;0.93;0.73;;;;;;;19.38;65.28;99709.09;5069899;28;20215;-64
2022/10/23 07:26:13;;;;;;;1.10;0.57;;;;;;;19.21;65.90;99718.53;5069766;28;20226;-65
2022/10/23 07:28:40;;;;;;;0.60;0.50;;;;;;;19.50;64.87;99717.44;5070066;28;20206;-59
2022/10/23 07:31:07;;;;;;;0.50;0.50;;;;;;;19.72;64.60;99729.09;5070103;28;20225;-59
2022/10/23 07:33:34;;;;;;;0.83;0.70;;;;;;;19.44;63.97;99724.03;5069965;28;20206;-65
2022/10/23 07:36:04;;;;;;;0.70;0.60;;;;;;;19.99;63.02;99723.72;5069799;28;20619;-65
2022/10/23 07:38:31;;;;;;;0.67;0.50;;;;;;;20.21;62.43;99724.13;5069919;28;20207;-59
2022/10/23 07:40:58;;;;;;;0.67;0.60;;;;;;;20.46;60.99;99731.00;5069442;28;20232;-58
2022/10/23 07:43:25;;;;;;;2.03;0.70;;;;;;;20.57;60.28;99737.72;5069611;28;20665;-59
2022/10/23 07:45:53;;;;;;;0.40;0.40;;;;;;;20.37;59.96;99726.78;5069928;28;20278;-58
2022/10/23 07:48:22;;;;;;;0.27;0.27;;;;;;;20.35;60.25;99734.72;5069455;28;20201;-59
2022/10/23 07:50:49;;;;;;;0.70;0.53;;;;;;;20.57;59.30;99746.34;5069571;28;20274;-65
2022/10/23 07:53:19;;;;;;;0.53;0.53;;;;;;;20.68;58.90;99734.84;5069597;28;20205;-59
2022/10/23 07:55:52;;;;;;;0.70;0.70;;;;;;;20.76;58.94;99740.03;5071556;28;20236;-59
2022/10/23 07:58:19;;;;;;;0.50;0.50;;;;;;;20.79;58.58;99752.69;5073854;28;20197;-58
2022/10/23 08:00:51;;;;;;;0.57;0.53;;;;;;;20.96;58.58;99752.72;5073927;28;20220;-65
2022/10/23 08:03:19;;;;;;;0.67;0.60;;;;;;;21.16;57.62;99748.81;5073958;28;20662;-65
2022/10/23 08:05:46;;;;;;;0.47;0.47;;;;;;;21.07;57.18;99749.00;5073908;28;20263;-65
2022/10/23 08:08:13;;;;;;;0.60;0.60;;;;;;;21.55;57.47;99748.16;5073634;28;20577;-65
2022/10/23 08:10:41;;;;;;;1.20;0.70;;;;;;;21.18;55.65;99756.47;5073705;28;20734;-60
2022/10/23 08:13:11;;;;;;;0.87;0.67;;;;;;;21.11;57.24;99751.09;5073745;28;20193;-59
2022/10/23 08:15:38;;;;;;;0.73;0.57;;;;;;;21.32;56.64;99753.22;5073462;28;20216;-65
2022/10/23 08:18:05;;;;;;;0.50;0.50;;;;;;;21.64;54.58;99751.56;5073398;28;20201;-64
2022/10/23 08:20:33;;;;;;;0.47;0.47;;;;;;;21.86;54.13;99758.66;5073491;28;20225;-58
2022/10/23 08:23:00;;;;;;;0.60;0.60;;;;;;;22.13;54.49;99756.63;5073168;28;20202;-59
2022/10/23 08:25:27;;;;;;;0.70;0.70;;;;;;;22.01;54.33;99763.19;5072894;28;20274;-64
2022/10/23 08:27:55;;;;;;;0.70;0.50;;;;;;;22.02;53.69;99765.63;5073463;28;20205;-59
2022/10/23 08:30:22;;;;;;;0.57;0.57;;;;;;;22.25;52.28;99755.31;5073282;28;20614;-64
2022/10/23 08:32:49;;;;;;;0.37;0.37;;;;;;;22.23;52.46;99754.66;5073277;28;20202;-64
2022/10/23 08:35:16;;;;;;;0.30;0.30;;;;;;;22.17;52.09;99755.34;5072282;28;20238;-65
2022/10/23 08:37:43;;;;;;;0.50;0.50;;;;;;;22.03;52.89;99764.63;5073011;28;20722;-59
2022/10/23 08:40:15;;;;;;;1.23;0.70;;;;;;;22.58;53.37;99760.34;5072561;28;20222;-59
2022/10/23 08:42:48;;;;;;;0.63;0.53;;;;;;;22.79;51.88;99757.13;5072565;28;20198;-65
2022/10/23 08:45:31;;;;;;;0.60;0.60;;;;;;;22.57;51.58;99758.72;5072847;28;20627;-59
2022/10/23 08:48:04;;;;;;;0.93;0.70;;;;;;;22.59;50.81;99761.97;5072936;28;20202;-59
2022/10/23 08:50:38;;;;;;;1.00;0.80;;;;;;;22.94;50.43;99765.00;5072669;28;20253;-59
2022/10/23 08:53:13;;;;;;;0.68;0.68;;;;;;;23.28;50.09;99772.44;5072718;28;20199;-66
2022/10/23 08:55:43;;;;;;;0.50;0.50;;;;;;;23.10;49.91;99766.72;5072229;28;20221;-59
2022/10/23 08:58:16;;;;;;;0.68;0.60;;;;;;;22.93;50.74;99771.22;5072343;28;20201;-64
2022/10/23 09:00:46;;;;;;;0.70;0.70;;;;;;;22.70;49.80;99769.41;5072348;28;20241;-58
2022/10/23 09:03:13;;;;;;;0.52;0.40;;;;;;;23.18;50.06;99767.44;5072659;28;20195;-59
2022/10/23 09:05:52;;;;;;;0.40;0.40;;;;;;;22.81;49.19;99765.59;5071770;28;20218;-58
2022/10/23 09:08:33;;;;;;;0.60;0.60;;;;;;;23.23;50.29;99762.50;5072375;28;20202;-64
2022/10/23 09:11:06;;;;;;;0.63;0.63;;;;;;;22.98;49.10;99772.34;5072319;28;20265;-66
2022/10/23 09:13:59;;;;;;;0.47;0.47;;;;;;;22.66;49.51;99773.34;5071984;28;21087;-59
2022/10/23 09:16:43;;;;;;;0.40;0.40;;;;;;;22.61;49.56;99775.66;5071048;28;20254;-65
2022/10/23 09:19:14;;;;;;;0.38;0.38;;;;;;;22.95;49.33;99769.25;5069532;28;20201;-65
2022/10/23 09:21:42;;;;;;;0.50;0.50;;;;;;;23.13;51.18;99777.59;5072299;28;20199;-59
2022/10/23 09:24:16;;;;;;;0.70;0.70;;;;;;;23.33;49.33;99766.66;5071773;28;20699;-65
2022/10/23 09:26:47;;;;;;;0.68;0.60;;;;;;;23.48;47.97;99770.13;5072031;28;20285;-59
2022/10/23 09:29:22;;;;;;;0.70;0.50;;;;;;;23.57;48.41;99771.66;5071256;28;20207;-59
2022/10/23 09:31:52;;;;;;;0.73;0.63;;;;;;;23.51;47.81;99764.56;5071815;28;20202;-58
2022/10/23 09:34:21;;;;;;;0.55;0.55;;;;;;;23.47;47.83;99765.88;5072344;28;20210;-59
2022/10/23 09:36:53;;;;;;;0.65;0.63;;;;;;;23.42;47.91;99757.78;5071141;28;20245;-58
2022/10/23 09:39:26;;;;;;;1.33;0.47;;;;;;;23.42;47.19;99757.78;5072109;28;20199;-65
2022/10/23 09:41:54;;;;;;;0.45;0.45;;;;;;;23.49;47.17;99748.25;5070030;28;20202;-59
2022/10/23 09:44:23;;;;;;;0.50;0.50;;;;;;;23.69;46.75;99749.34;5070483;28;20233;-59
2022/10/23 09:46:53;;;;;;;0.77;0.43;;;;;;;23.41;47.48;99756.16;5071123;28;20203;-64
2022/10/23 09:49:22;;;;;;;0.60;0.50;;;;;;;24.07;46.95;99741.44;5071752;28;20211;-64
2022/10/23 09:52:01;;;;;;;0.65;0.65;;;;;;;24.15;45.69;99738.72;5071209;28;20210;-64
2022/10/23 09:54:29;;;;;;;0.57;0.50;;;;;;;23.94;45.79;99741.28;5071802;28;20256;-59
2022/10/23 09:56:59;;;;;;;0.50;0.50;;;;;;;24.02;45.72;99722.88;5071305;28;20749;-65
2022/10/23 09:59:29;;;;;;;0.73;0.55;;;;;;;24.11;44.86;99721.78;5071464;28;20210;-59
2022/10/23 10:01:59;;;;;;;0.60;0.60;;;;;;;24.05;45.95;99712.06;5070973;28;20679;-65
2022/10/23 10:04:35;;;;;;;0.47;0.47;;;;;;;23.53;46.21;99718.19;5071951;28;20221;-59
2022/10/23 10:07:04;;;;;;;0.43;0.43;;;;;;;23.77;46.75;99724.19;5070849;28;20217;-64
2022/10/23 10:09:31;;;;;;;0.50;0.50;;;;;;;23.79;46.27;99711.75;5071257;28;20235;-58
2022/10/23 10:12:10;;;;;;;0.60;0.60;;;;;;;23.79;45.82;99711.75;5071271;28;20211;-59
2022/10/23 10:14:50;;;;;;;0.73;0.50;;;;;;;23.81;46.38;99712.38;5071516;28;20222;-65
2022/10/23 10:17:31;;;;;;;0.50;0.50;;;;;;;24.11;45.52;99711.31;5069874;28;20242;-59
2022/10/23 10:20:10;;;;;;;0.47;0.47;;;;;;;24.36;44.03;99705.78;5070987;28;20223;-64
2022/10/23 10:22:46;;;;;;;0.60;0.60;;;;;;;24.24;44.99;99712.50;5070982;28;20194;-58
2022/10/23 10:25:17;;;;;;;0.68;0.50;;;;;;;24.43;44.01;99714.53;5070792;28;20222;-64
2022/10/23 10:27:56;;;;;;;0.50;0.47;;;;;;;24.39;44.04;99719.28;5070713;28;20201;-59
2022/10/23 10:30:25;;;;;;;0.40;0.40;;;;;;;24.17;44.91;99700.16;5070144;28;20255;-64
2022/10/23 10:32:58;;;;;;;1.25;0.90;;;;;;;24.16;44.66;99701.16;5068707;28;20202;-59
2022/10/23 10:35:40;;;;;;;0.68;0.68;;;;;;;24.20;43.88;99696.34;5070131;28;20221;-61
2022/10/23 10:38:27;;;;;;;0.28;0.28;;;;;;;24.53;43.81;99703.78;5070652;28;20226;-65
2022/10/23 10:41:18;;;;;;;0.60;0.50;;;;;;;24.26;44.19;99692.19;5070623;28;20219;-65
2022/10/23 10:43:59;;;;;;;0.60;0.60;;;;;;;24.33;44.53;99685.25;5067382;28;20195;-64
2022/10/23 10:46:33;;;;;;;0.43;0.43;;;;;;;24.18;44.50;99699.16;5059947;28;20234;-65
2022/10/23 10:49:10;;;;;;;0.73;0.73;;;;;;;24.04;43.72;99694.78;5070147;28;20213;-64
2022/10/23 10:51:47;;;;;;;0.63;0.63;;;;;;;24.11;44.30;99698.25;5070215;28;20222;-64
2022/10/23 10:54:29;;;;;;;0.40;0.40;;;;;;;24.15;44.14;99690.91;5069976;28;20683;-64
2022/10/23 10:57:00;;;;;;;0.75;0.75;;;;;;;24.20;43.67;99690.31;5069898;28;20730;-59
2022/10/23 10:59:30;;;;;;;0.45;0.45;;;;;;;24.28;44.03;99693.63;5070121;28;20209;-59
2022/10/23 11:02:02;;;;;;;0.40;0.40;;;;;;;24.21;44.15;99697.19;5069863;28;20198;-59
2022/10/23 11:04:37;;;;;;;0.65;0.63;;;;;;;24.28;44.00;99690.22;5069996;28;20210;-59
2022/10/23 11:07:09;;;;;;;0.55;0.55;;;;;;;24.28;44.13;99703.28;5070059;28;20198;-59
2022/10/23 11:09:35;;;;;;;0.68;0.60;;;;;;;24.12;44.38;99697.28;5069998;28;20219;-59
2022/10/23 11:12:02;;;;;;;0.50;0.50;;;;;;;24.11;44.06;99710.53;5069209;28;20211;-59
2022/10/23 11:14:33;;;;;;;0.52;0.52;;;;;;;24.08;43.52;99701.25;5068496;28;20218;-59
2022/10/23 11:17:08;;;;;;;0.55;0.55;;;;;;;24.36;42.94;99693.53;5066567;28;20223;-58
2022/10/23 11:19:43;;;;;;;0.63;0.52;;;;;;;24.36;43.41;99703.19;5068981;28;20214;-59
2022/10/23 11:22:19;;;;;;;0.40;0.40;;;;;;;24.34;43.29;99699.94;5068721;28;20230;-59
2022/10/23 11:25:16;;;;;;;0.93;0.60;;;;;;;24.18;43.04;99691.31;5069078;28;20218;-65
2022/10/23 11:27:58;;;;;;;0.30;0.30;;;;;;;24.41;43.82;99687.75;5069524;28;20221;-65
2022/10/23 11:30:28;;;;;;;0.68;0.50;;;;;;;24.34;42.68;99679.03;5069515;28;20219;-65
2022/10/23 11:33:17;;;;;;;0.63;0.52;;;;;;;24.20;43.47;99687.72;5069630;28;20203;-65
2022/10/23 11:35:59;;;;;;;0.38;0.38;;;;;;;24.31;43.71;99690.66;5069311;28;20691;-59
2022/10/23 11:38:30;;;;;;;0.38;0.35;;;;;;;24.22;43.82;99680.50;5067634;28;20308;-59
2022/10/23 11:41:00;;;;;;;0.50;0.50;;;;;;;24.35;45.32;99676.22;5067565;28;20227;-65
2022/10/23 11:43:28;;;;;;;0.50;0.50;;;;;;;24.14;44.75;99674.41;5067906;28;20221;-66
2022/10/23 11:45:55;;;;;;;0.52;0.52;;;;;;;24.24;45.00;99686.38;5068275;28;20219;-63
2022/10/23 11:48:35;;;;;;;0.50;0.50;;;;;;;24.53;43.71;99680.25;5069064;28;20198;-60